createdAt,value
2023-05-03T00:03:32.929Z,14.65
2023-05-03T00:07:33.151Z,14.58
2023-05-03T00:11:37.249Z,14.78
2023-05-03T00:15:37.402Z,14.68
2023-05-03T00:19:38.300Z,14.58
2023-05-03T00:23:38.513Z,14.45
2023-05-03T00:27:41.401Z,13.99
2023-05-03T00:31:41.628Z,14.17
2023-05-03T00:35:41.967Z,14.13
2023-05-03T00:39:42.250Z,14.15
2023-05-03T00:43:45.000Z,14.11
2023-05-03T00:47:45.386Z,13.97
2023-05-03T00:51:45.956Z,13.79
2023-05-03T00:55:48.438Z,13.66
2023-05-03T00:59:52.978Z,13.74
2023-05-03T01:03:53.294Z,13.54
2023-05-03T01:08:10.516Z,13.35
2023-05-03T01:12:26.878Z,13.48
2023-05-03T01:16:40.889Z,13.29
2023-05-03T01:20:45.114Z,13.28
2023-05-03T01:24:54.019Z,13.34
2023-05-03T01:28:58.637Z,13.26
2023-05-03T01:33:08.607Z,13.16
2023-05-03T01:37:14.023Z,13.24
2023-05-03T01:41:17.423Z,13.50
2023-05-03T01:45:21.243Z,13.59
2023-05-03T01:49:22.381Z,13.55
2023-05-03T01:53:23.160Z,12.89
2023-05-03T01:57:23.405Z,13.34
2023-05-03T02:01:26.349Z,13.23
2023-05-03T02:05:26.537Z,12.81
2023-05-03T02:09:28.446Z,13.03
2023-05-03T02:13:28.749Z,12.98
2023-05-03T02:17:31.673Z,12.95
2023-05-03T02:21:31.942Z,12.88
2023-05-03T02:25:32.457Z,12.73
2023-05-03T02:29:32.702Z,12.81
2023-05-03T02:33:37.574Z,12.69
2023-05-03T02:37:37.822Z,12.66
2023-05-03T02:41:42.873Z,12.68
2023-05-03T02:45:43.177Z,12.51
2023-05-03T02:49:48.383Z,12.50
2023-05-03T02:53:49.435Z,12.47
2023-05-03T02:57:49.659Z,12.18
2023-05-03T03:01:53.173Z,12.09
2023-05-03T03:05:59.071Z,12.15
2023-05-03T03:09:59.351Z,12.01
2023-05-03T03:13:59.811Z,11.87
2023-05-03T03:18:01.180Z,11.79
2023-05-03T03:22:04.413Z,11.59
2023-05-03T03:26:05.316Z,11.61
2023-05-03T03:30:08.285Z,11.49
2023-05-03T03:34:15.179Z,11.52
2023-05-03T03:38:18.272Z,11.62
2023-05-03T03:42:29.469Z,11.46
2023-05-03T03:46:31.352Z,11.36
2023-05-03T03:50:32.852Z,11.56
2023-05-03T03:54:36.124Z,11.58
2023-05-03T03:58:37.081Z,11.65
2023-05-03T04:02:41.331Z,11.70
2023-05-03T04:06:49.486Z,11.70
2023-05-03T04:10:53.372Z,11.58
2023-05-03T04:14:55.177Z,11.64
2023-05-03T04:18:55.575Z,11.62
2023-05-03T04:22:55.974Z,11.54
2023-05-03T04:27:04.675Z,11.61
2023-05-03T04:31:07.796Z,11.52
2023-05-03T04:35:13.079Z,11.94
2023-05-03T04:39:17.907Z,11.98
2023-05-03T04:43:23.450Z,12.19
2023-05-03T04:47:25.485Z,12.24
2023-05-03T04:51:28.466Z,12.44
2023-05-03T04:55:29.648Z,12.47
2023-05-03T04:59:34.840Z,12.55
2023-05-03T05:03:35.566Z,12.64
2023-05-03T05:07:41.019Z,12.77
2023-05-03T05:11:43.152Z,13.06
2023-05-03T05:15:46.542Z,13.57
2023-05-03T05:19:47.500Z,13.72
2023-05-03T05:23:49.115Z,14.29
2023-05-03T05:27:49.969Z,14.66
2023-05-03T05:31:53.284Z,15.12
2023-05-03T05:35:54.609Z,15.04
2023-05-03T05:39:56.408Z,15.23
2023-05-03T05:44:00.960Z,15.57
2023-05-03T05:48:06.159Z,15.87
2023-05-03T05:52:08.239Z,15.98
2023-05-03T05:56:09.080Z,15.62
2023-05-03T06:00:14.986Z,16.03
2023-05-03T06:04:19.633Z,16.14
2023-05-03T06:08:20.523Z,16.30
2023-05-03T06:12:21.074Z,16.99
2023-05-03T06:16:22.393Z,16.82
2023-05-03T06:20:26.531Z,17.24
2023-05-03T06:24:31.433Z,17.54
2023-05-03T06:28:31.607Z,18.08
2023-05-03T06:32:31.922Z,18.46
2023-05-03T06:36:35.741Z,18.71
2023-05-03T06:40:38.541Z,18.45
2023-05-03T06:44:38.894Z,18.40
2023-05-03T06:48:39.652Z,18.23
2023-05-03T06:52:42.774Z,17.89
2023-05-03T06:56:43.101Z,17.60
2023-05-03T07:00:43.438Z,17.39
2023-05-03T07:04:43.720Z,17.58
2023-05-03T07:08:47.164Z,17.22
2023-05-03T07:12:47.411Z,17.39
2023-05-03T07:16:47.694Z,17.71
2023-05-03T07:20:49.042Z,17.26
2023-05-03T07:24:51.934Z,17.03
2023-05-03T07:28:52.303Z,17.37
2023-05-03T07:32:52.845Z,17.45
2023-05-03T07:36:53.113Z,17.79
2023-05-03T07:40:56.069Z,18.12
2023-05-03T07:44:56.434Z,18.51
2023-05-03T07:48:56.549Z,18.53
2023-05-03T07:52:56.951Z,18.47
2023-05-03T07:56:59.800Z,19.03
2023-05-03T08:01:00.173Z,20.41
2023-05-03T08:05:00.844Z,20.96
2023-05-03T08:09:01.439Z,22.13
2023-05-03T08:13:04.173Z,23.17
2023-05-03T08:17:04.922Z,23.31
2023-05-03T08:21:05.079Z,24.26
2023-05-03T08:25:05.225Z,24.27
2023-05-03T08:29:08.497Z,25.10
2023-05-03T08:33:10.106Z,26.16
2023-05-03T08:37:10.494Z,25.84
2023-05-03T08:41:26.148Z,24.38
2023-05-03T08:45:29.341Z,25.01
2023-05-03T08:49:30.914Z,25.46
2023-05-03T08:53:32.760Z,26.16
2023-05-03T08:57:34.684Z,27.74
2023-05-03T09:01:40.259Z,28.11
2023-05-03T09:05:44.432Z,29.51
2023-05-03T09:09:47.058Z,29.02
2023-05-03T09:13:47.817Z,28.44
2023-05-03T09:18:13.577Z,27.86
2023-05-03T09:22:14.455Z,26.16
2023-05-03T09:26:30.533Z,24.44
2023-05-03T09:30:30.972Z,23.83
2023-05-03T09:34:34.961Z,23.77
2023-05-03T09:38:37.985Z,23.07
2023-05-03T09:42:39.176Z,24.44
2023-05-03T09:46:40.216Z,26.50
2023-05-03T09:50:45.785Z,26.01
2023-05-03T09:54:47.389Z,25.93
2023-05-03T09:58:47.961Z,27.72
2023-05-03T10:02:51.525Z,29.34
2023-05-03T10:07:01.080Z,29.85
2023-05-03T10:11:01.701Z,29.71
2023-05-03T10:15:07.427Z,28.72
2023-05-03T10:19:16.333Z,27.69
2023-05-03T10:23:20.978Z,27.08
2023-05-03T10:27:21.168Z,28.36
2023-05-03T10:31:50.501Z,30.22
2023-05-03T10:35:55.542Z,29.59
2023-05-03T10:39:59.631Z,28.19
2023-05-03T10:43:59.897Z,29.15
2023-05-03T10:48:23.457Z,31.01
2023-05-03T10:52:51.837Z,33.08
2023-05-03T10:56:59.925Z,33.99
2023-05-03T11:01:01.337Z,34.81
2023-05-03T11:05:09.380Z,35.57
2023-05-03T11:09:15.071Z,37.19
2023-05-03T11:13:18.481Z,37.65
2023-05-03T11:17:19.115Z,37.17
2023-05-03T11:21:21.432Z,37.18
2023-05-03T11:25:21.797Z,37.59
2023-05-03T11:29:27.475Z,38.83
2023-05-03T11:33:29.596Z,37.42
2023-05-03T11:37:30.502Z,37.17
2023-05-03T11:41:30.740Z,38.10
2023-05-03T11:45:44.409Z,38.47
2023-05-03T11:49:54.766Z,37.69
2023-05-03T11:53:55.222Z,35.15
2023-05-03T11:57:55.507Z,32.91
2023-05-03T12:01:59.815Z,32.00
2023-05-03T12:06:01.785Z,32.28
2023-05-03T12:14:06.939Z,34.66
2023-05-03T12:18:12.761Z,35.51
2023-05-03T12:22:26.355Z,37.14
2023-05-03T12:26:27.620Z,35.10
2023-05-03T12:30:29.038Z,36.16
2023-05-03T12:34:35.426Z,37.26
2023-05-03T12:38:37.794Z,38.30
2023-05-03T12:42:40.043Z,38.62
2023-05-03T12:46:45.241Z,37.56
2023-05-03T12:50:51.898Z,38.36
2023-05-03T12:54:55.680Z,38.20
2023-05-03T13:07:12.530Z,37.91
2023-05-03T13:11:14.093Z,37.80
2023-05-03T13:15:14.823Z,37.00
2023-05-03T13:19:15.329Z,34.34
2023-05-03T13:23:18.398Z,35.22
2023-05-03T13:27:19.933Z,35.13
2023-05-03T13:31:21.015Z,34.99
2023-05-03T13:35:21.583Z,35.90
2023-05-03T13:39:24.475Z,35.06
2023-05-03T13:43:24.848Z,33.70
2023-05-03T13:47:26.987Z,33.57
2023-05-03T13:51:29.691Z,35.20
2023-05-03T13:55:32.755Z,34.96
2023-05-03T13:59:33.037Z,35.00
2023-05-03T14:03:34.970Z,35.20
2023-05-03T14:07:36.517Z,34.86
2023-05-03T14:11:39.885Z,35.30
2023-05-03T14:15:43.606Z,31.67
2023-05-03T14:19:43.877Z,32.03
2023-05-03T14:23:45.147Z,32.87
2023-05-03T14:27:48.101Z,34.06
2023-05-03T14:31:48.524Z,34.16
2023-05-03T14:35:48.891Z,35.38
2023-05-03T14:39:49.106Z,36.39
2023-05-03T14:43:51.879Z,37.22
2023-05-03T14:47:52.404Z,36.10
2023-05-03T14:51:52.667Z,36.06
2023-05-03T14:55:54.651Z,35.77
2023-05-03T14:59:57.680Z,35.25
2023-05-03T15:03:58.032Z,36.01
2023-05-03T15:07:59.093Z,35.98
2023-05-03T15:11:59.751Z,36.06
2023-05-03T15:16:02.524Z,36.83
2023-05-03T15:20:03.100Z,36.35
2023-05-03T15:24:04.368Z,36.27
2023-05-03T15:28:04.895Z,36.71
2023-05-03T15:32:08.740Z,36.47
2023-05-03T15:36:12.293Z,35.53
2023-05-03T15:40:14.755Z,36.19
2023-05-03T15:44:16.371Z,36.30
2023-05-03T15:48:19.286Z,35.51
2023-05-03T15:52:19.469Z,35.24
2023-05-03T15:56:21.011Z,34.99
2023-05-03T16:00:23.149Z,35.24
2023-05-03T16:04:26.102Z,34.59
2023-05-03T16:08:26.534Z,33.90
2023-05-03T16:12:27.517Z,32.94
2023-05-03T16:16:28.435Z,31.42
2023-05-03T16:20:31.478Z,32.55
2023-05-03T16:24:31.639Z,32.49
2023-05-03T16:28:31.888Z,31.79
2023-05-03T16:32:32.190Z,31.20
2023-05-03T16:36:42.590Z,30.55
2023-05-03T16:40:43.455Z,29.48
2023-05-03T16:44:43.680Z,30.03
2023-05-03T16:48:43.871Z,29.51
2023-05-03T16:52:47.614Z,29.12
2023-05-03T16:56:48.197Z,29.19
2023-05-03T17:00:48.763Z,29.77
2023-05-03T17:04:49.141Z,29.85
2023-05-03T17:08:52.145Z,29.51
2023-05-03T17:12:52.892Z,29.22
2023-05-03T17:16:53.541Z,29.14
2023-05-03T17:20:53.789Z,29.04
2023-05-03T17:24:57.485Z,28.88
2023-05-03T17:28:57.685Z,28.75
2023-05-03T17:32:57.896Z,27.94
2023-05-03T17:36:59.365Z,27.18
2023-05-03T17:41:07.864Z,27.14
2023-05-03T17:45:10.253Z,27.05
2023-05-03T17:49:10.587Z,27.09
2023-05-03T17:53:11.958Z,26.77
2023-05-03T17:57:15.045Z,26.36
2023-05-03T18:01:16.017Z,25.96
2023-05-03T18:05:17.706Z,25.24
2023-05-03T18:09:18.589Z,24.81
2023-05-03T18:13:21.636Z,24.49
2023-05-03T18:17:22.746Z,24.25
2023-05-03T18:21:23.662Z,23.70
2023-05-03T18:25:24.112Z,23.04
2023-05-03T18:29:26.986Z,22.61
2023-05-03T18:33:27.547Z,22.22
2023-05-03T18:37:27.921Z,21.91
2023-05-03T18:41:28.113Z,21.56
2023-05-03T18:45:31.329Z,21.35
2023-05-03T18:49:31.502Z,20.83
2023-05-03T18:53:32.190Z,20.88
2023-05-03T18:57:32.477Z,20.24
2023-05-03T19:01:35.369Z,20.58
2023-05-03T19:05:36.493Z,20.31
2023-05-03T19:09:36.820Z,20.18
2023-05-03T19:13:37.054Z,19.94
2023-05-03T19:17:40.575Z,19.97
2023-05-03T19:21:42.635Z,19.86
2023-05-03T19:25:42.945Z,19.71
2023-05-03T19:29:43.220Z,19.57
2023-05-03T19:33:46.598Z,19.34
2023-05-03T19:37:46.829Z,19.37
2023-05-03T19:41:47.451Z,19.19
2023-05-03T19:45:47.821Z,19.00
2023-05-03T19:49:50.749Z,18.78
2023-05-03T19:53:51.163Z,18.72
2023-05-03T19:57:51.412Z,18.30
2023-05-03T20:01:51.898Z,18.23
2023-05-03T20:05:54.846Z,18.22
2023-05-03T20:09:55.221Z,18.30
2023-05-03T20:13:55.500Z,18.16
2023-05-03T20:17:56.981Z,18.29
2023-05-03T20:21:59.803Z,18.35
2023-05-03T20:26:01.742Z,18.33
2023-05-03T20:30:04.759Z,18.06
2023-05-03T20:34:05.340Z,17.90
2023-05-03T20:38:08.398Z,17.91
2023-05-03T20:42:08.865Z,17.56
2023-05-03T20:46:09.252Z,17.66
2023-05-03T20:50:11.943Z,17.66
2023-05-03T20:54:14.742Z,17.43
2023-05-03T20:58:16.260Z,17.35
2023-05-03T21:02:16.559Z,17.15
2023-05-03T21:06:16.826Z,17.03
2023-05-03T21:10:19.683Z,16.85
2023-05-03T21:14:20.076Z,16.79
2023-05-03T21:18:21.703Z,16.80
2023-05-03T21:22:22.877Z,16.31
2023-05-03T21:26:26.339Z,16.40
2023-05-03T21:30:26.587Z,16.38
2023-05-03T21:34:26.941Z,16.23
2023-05-03T21:38:27.302Z,16.22
2023-05-03T21:42:30.397Z,16.02
2023-05-03T21:46:30.682Z,15.77
2023-05-03T21:50:31.197Z,15.80
2023-05-03T21:54:31.845Z,15.73
2023-05-03T21:58:34.922Z,15.71
2023-05-03T22:02:35.225Z,15.69
2023-05-03T22:06:35.737Z,15.55
2023-05-03T22:10:36.672Z,15.47
2023-05-03T22:14:39.478Z,15.51
2023-05-03T22:18:42.432Z,15.42
2023-05-03T22:22:42.900Z,15.13
2023-05-03T22:26:43.083Z,15.18
2023-05-03T22:30:45.811Z,14.86
2023-05-03T22:34:46.787Z,15.05
2023-05-03T22:38:48.083Z,14.78
2023-05-03T22:42:48.483Z,14.64
2023-05-03T22:46:51.186Z,14.80
2023-05-03T22:50:51.848Z,14.82
2023-05-03T22:54:52.064Z,14.43
2023-05-03T22:58:52.296Z,14.36
2023-05-03T23:02:55.149Z,14.11
2023-05-03T23:06:56.718Z,14.10
2023-05-03T23:10:59.505Z,13.87
2023-05-03T23:14:59.881Z,13.76
2023-05-03T23:19:02.654Z,13.62
2023-05-03T23:23:02.867Z,13.42
2023-05-03T23:27:03.595Z,13.60
2023-05-03T23:31:04.613Z,13.36
2023-05-03T23:35:09.590Z,13.45
2023-05-03T23:39:09.963Z,13.29
2023-05-03T23:43:10.391Z,13.43
2023-05-03T23:47:10.769Z,13.35
2023-05-03T23:51:13.548Z,13.30
2023-05-03T23:55:14.908Z,13.12
2023-05-03T23:59:15.231Z,13.07
